sensor_id;sensor_type;location;lat;lon;timestamp;pressure;altitude;pressure_sealevel;temperature;humidity
47082;BME280;33066;49.296;14.470;2022-09-03T00:00:34;96969.80;;;19.05;34.60
47082;BME280;33066;49.296;14.470;2022-09-03T00:03:01;96968.26;;;19.18;34.85
47082;BME280;33066;49.296;14.470;2022-09-03T00:05:25;96970.64;;;19.08;35.06
47082;BME280;33066;49.296;14.470;2022-09-03T00:07:54;96968.04;;;19.01;35.58
47082;BME280;33066;49.296;14.470;2022-09-03T00:10:17;96966.27;;;19.17;35.76
47082;BME280;33066;49.296;14.470;2022-09-03T00:12:39;96966.99;;;18.93;35.94
47082;BME280;33066;49.296;14.470;2022-09-03T00:15:05;96967.42;;;18.96;35.75
47082;BME280;33066;49.296;14.470;2022-09-03T00:17:33;96970.45;;;18.94;35.83
47082;BME280;33066;49.296;14.470;2022-09-03T00:19:59;96975.29;;;18.87;35.84
47082;BME280;33066;49.296;14.470;2022-09-03T00:22:22;96977.13;;;18.88;35.80
47082;BME280;33066;49.296;14.470;2022-09-03T00:24:43;96977.17;;;18.65;35.03
47082;BME280;33066;49.296;14.470;2022-09-03T00:27:14;96979.25;;;18.84;34.70
47082;BME280;33066;49.296;14.470;2022-09-03T00:29:38;96977.11;;;18.88;34.68
47082;BME280;33066;49.296;14.470;2022-09-03T00:32:04;96971.81;;;19.14;34.83
47082;BME280;33066;49.296;14.470;2022-09-03T00:34:30;96967.23;;;18.92;34.91
47082;BME280;33066;49.296;14.470;2022-09-03T00:36:49;96962.45;;;18.98;35.38
47082;BME280;33066;49.296;14.470;2022-09-03T00:39:17;96963.72;;;18.76;35.67
47082;BME280;33066;49.296;14.470;2022-09-03T00:41:49;96963.90;;;18.98;35.83
47082;BME280;33066;49.296;14.470;2022-09-03T00:44:22;96961.42;;;18.97;35.98
47082;BME280;33066;49.296;14.470;2022-09-03T00:46:37;96962.48;;;18.95;36.01
47082;BME280;33066;49.296;14.470;2022-09-03T00:49:11;96960.91;;;18.91;36.12
47082;BME280;33066;49.296;14.470;2022-09-03T00:51:25;96959.78;;;18.97;36.18
47082;BME280;33066;49.296;14.470;2022-09-03T00:53:52;96961.74;;;18.95;36.19
47082;BME280;33066;49.296;14.470;2022-09-03T00:56:18;96963.11;;;19.17;36.27
47082;BME280;33066;49.296;14.470;2022-09-03T00:58:48;96963.07;;;18.90;36.33
47082;BME280;33066;49.296;14.470;2022-09-03T01:01:07;96964.41;;;18.68;36.19
47082;BME280;33066;49.296;14.470;2022-09-03T01:03:36;96962.89;;;18.97;36.28
47082;BME280;33066;49.296;14.470;2022-09-03T01:06:06;96964.70;;;18.96;36.23
47082;BME280;33066;49.296;14.470;2022-09-03T01:08:32;96960.97;;;18.72;35.99
47082;BME280;33066;49.296;14.470;2022-09-03T01:10:49;96962.46;;;18.97;35.93
47082;BME280;33066;49.296;14.470;2022-09-03T01:13:13;96959.59;;;18.82;36.15
47082;BME280;33066;49.296;14.470;2022-09-03T01:15:42;96961.42;;;18.69;36.46
47082;BME280;33066;49.296;14.470;2022-09-03T01:18:13;96965.44;;;18.57;36.66
47082;BME280;33066;49.296;14.470;2022-09-03T01:20:34;96964.88;;;18.53;36.75
47082;BME280;33066;49.296;14.470;2022-09-03T01:23:09;96966.25;;;18.73;36.74
47082;BME280;33066;49.296;14.470;2022-09-03T01:25:21;96966.68;;;18.68;36.82
47082;BME280;33066;49.296;14.470;2022-09-03T01:30:08;96969.26;;;18.50;37.06
47082;BME280;33066;49.296;14.470;2022-09-03T01:32:42;96967.34;;;18.43;37.06
47082;BME280;33066;49.296;14.470;2022-09-03T01:35:05;96967.22;;;18.40;37.01
47082;BME280;33066;49.296;14.470;2022-09-03T01:37:31;96964.35;;;18.43;36.72
47082;BME280;33066;49.296;14.470;2022-09-03T01:39:59;96960.26;;;18.40;36.64
47082;BME280;33066;49.296;14.470;2022-09-03T01:42:21;96960.29;;;18.34;36.90
47082;BME280;33066;49.296;14.470;2022-09-03T01:44:49;96955.61;;;18.26;37.11
47082;BME280;33066;49.296;14.470;2022-09-03T01:47:06;96953.78;;;18.18;37.14
47082;BME280;33066;49.296;14.470;2022-09-03T01:49:33;96954.23;;;18.13;37.20
47082;BME280;33066;49.296;14.470;2022-09-03T01:52:00;96957.63;;;18.14;37.01
47082;BME280;33066;49.296;14.470;2022-09-03T01:54:29;96957.62;;;18.11;36.89
47082;BME280;33066;49.296;14.470;2022-09-03T01:59:14;96958.53;;;18.31;36.88
47082;BME280;33066;49.296;14.470;2022-09-03T02:01:41;96956.66;;;17.94;37.01
47082;BME280;33066;49.296;14.470;2022-09-03T02:04:01;96958.08;;;17.85;37.15
47082;BME280;33066;49.296;14.470;2022-09-03T02:06:25;96957.71;;;17.78;37.24
47082;BME280;33066;49.296;14.470;2022-09-03T02:08:50;96961.15;;;17.67;37.38
47082;BME280;33066;49.296;14.470;2022-09-03T02:11:16;96960.94;;;17.86;37.40
47082;BME280;33066;49.296;14.470;2022-09-03T02:13:46;96961.05;;;17.56;37.50
47082;BME280;33066;49.296;14.470;2022-09-03T02:16:11;96959.36;;;17.79;37.52
47082;BME280;33066;49.296;14.470;2022-09-03T02:18:39;96962.83;;;17.88;37.35
47082;BME280;33066;49.296;14.470;2022-09-03T02:20:58;96962.56;;;17.75;36.98
47082;BME280;33066;49.296;14.470;2022-09-03T02:23:24;96960.70;;;17.72;37.01
47082;BME280;33066;49.296;14.470;2022-09-03T02:25:51;96959.21;;;17.73;36.87
47082;BME280;33066;49.296;14.470;2022-09-03T02:28:14;96959.93;;;17.66;36.87
47082;BME280;33066;49.296;14.470;2022-09-03T02:30:39;96959.95;;;17.83;36.93
47082;BME280;33066;49.296;14.470;2022-09-03T02:33:04;96961.44;;;17.82;36.89
47082;BME280;33066;49.296;14.470;2022-09-03T02:35:30;96964.88;;;17.48;36.95
47082;BME280;33066;49.296;14.470;2022-09-03T02:37:56;96959.53;;;17.36;37.07
47082;BME280;33066;49.296;14.470;2022-09-03T02:40:20;96959.07;;;17.58;37.10
47082;BME280;33066;49.296;14.470;2022-09-03T02:42:46;96962.20;;;17.77;37.23
47082;BME280;33066;49.296;14.470;2022-09-03T02:45:19;96963.72;;;17.81;37.21
47082;BME280;33066;49.296;14.470;2022-09-03T02:47:37;96966.02;;;17.52;37.17
47082;BME280;33066;49.296;14.470;2022-09-03T02:50:01;96966.38;;;17.49;37.28
47082;BME280;33066;49.296;14.470;2022-09-03T02:52:27;96963.78;;;17.71;37.22
47082;BME280;33066;49.296;14.470;2022-09-03T02:54:54;96962.26;;;17.64;37.14
47082;BME280;33066;49.296;14.470;2022-09-03T02:57:18;96960.93;;;17.30;37.19
47082;BME280;33066;49.296;14.470;2022-09-03T02:59:43;96958.69;;;17.42;37.29
47082;BME280;33066;49.296;14.470;2022-09-03T03:02:09;96950.36;;;17.34;37.46
47082;BME280;33066;49.296;14.470;2022-09-03T03:04:34;96947.11;;;17.31;37.42
47082;BME280;33066;49.296;14.470;2022-09-03T03:06:59;96949.42;;;17.22;37.53
47082;BME280;33066;49.296;14.470;2022-09-03T03:09:25;96950.67;;;17.21;37.43
47082;BME280;33066;49.296;14.470;2022-09-03T03:13:00;96949.20;;;16.99;36.99
47082;BME280;33066;49.296;14.470;2022-09-03T03:15:25;96948.63;;;17.39;37.05
47082;BME280;33066;49.296;14.470;2022-09-03T03:17:51;96948.87;;;17.02;37.16
47082;BME280;33066;49.296;14.470;2022-09-03T03:20:16;96951.70;;;17.14;37.36
47082;BME280;33066;49.296;14.470;2022-09-03T03:22:42;96950.25;;;17.08;37.47
47082;BME280;33066;49.296;14.470;2022-09-03T03:25:08;96955.15;;;16.79;37.63
47082;BME280;33066;49.296;14.470;2022-09-03T03:27:33;96957.96;;;17.01;37.84
47082;BME280;33066;49.296;14.470;2022-09-03T03:29:58;96961.77;;;17.28;37.63
47082;BME280;33066;49.296;14.470;2022-09-03T03:32:23;96967.01;;;17.06;37.07
47082;BME280;33066;49.296;14.470;2022-09-03T03:34:49;96962.50;;;17.14;36.62
47082;BME280;33066;49.296;14.470;2022-09-03T03:37:14;96961.78;;;17.13;36.54
47082;BME280;33066;49.296;14.470;2022-09-03T03:39:40;96960.93;;;17.25;36.60
47082;BME280;33066;49.296;14.470;2022-09-03T03:42:05;96960.25;;;17.03;36.67
47082;BME280;33066;49.296;14.470;2022-09-03T03:44:31;96957.13;;;17.02;36.71
47082;BME280;33066;49.296;14.470;2022-09-03T03:46:56;96952.56;;;17.07;36.56
47082;BME280;33066;49.296;14.470;2022-09-03T03:49:22;96952.52;;;17.28;36.52
47082;BME280;33066;49.296;14.470;2022-09-03T03:51:47;96955.96;;;16.95;36.56
47082;BME280;33066;49.296;14.470;2022-09-03T03:54:13;96957.57;;;16.87;36.63
47082;BME280;33066;49.296;14.470;2022-09-03T03:56:38;96957.45;;;16.76;36.85
47082;BME280;33066;49.296;14.470;2022-09-03T03:59:03;96952.92;;;16.97;37.03
47082;BME280;33066;49.296;14.470;2022-09-03T04:01:29;96952.85;;;16.92;36.95
47082;BME280;33066;49.296;14.470;2022-09-03T04:03:57;96951.76;;;16.56;37.01
47082;BME280;33066;49.296;14.470;2022-09-03T04:06:19;96954.10;;;16.69;37.26
47082;BME280;33066;49.296;14.470;2022-09-03T04:08:46;96957.15;;;16.66;37.19
47082;BME280;33066;49.296;14.470;2022-09-03T04:11:12;96959.18;;;16.38;37.23
47082;BME280;33066;49.296;14.470;2022-09-03T04:13:37;96960.96;;;16.64;37.14
47082;BME280;33066;49.296;14.470;2022-09-03T04:16:02;96962.60;;;16.44;37.01
47082;BME280;33066;49.296;14.470;2022-09-03T04:18:26;96961.22;;;16.57;36.80
47082;BME280;33066;49.296;14.470;2022-09-03T04:20:52;96958.28;;;16.68;36.63
47082;BME280;33066;49.296;14.470;2022-09-03T04:23:17;96956.36;;;16.87;36.57
47082;BME280;33066;49.296;14.470;2022-09-03T04:25:51;96951.84;;;16.52;36.61
47082;BME280;33066;49.296;14.470;2022-09-03T04:28:08;96949.67;;;16.43;36.61
47082;BME280;33066;49.296;14.470;2022-09-03T04:30:33;96944.91;;;16.32;36.60
47082;BME280;33066;49.296;14.470;2022-09-03T04:32:59;96942.44;;;16.43;36.75
47082;BME280;33066;49.296;14.470;2022-09-03T04:35:25;96945.13;;;16.37;36.87
47082;BME280;33066;49.296;14.470;2022-09-03T04:37:49;96945.83;;;16.31;37.03
47082;BME280;33066;49.296;14.470;2022-09-03T04:40:15;96943.03;;;16.47;37.05
47082;BME280;33066;49.296;14.470;2022-09-03T04:42:41;96941.20;;;16.20;37.22
47082;BME280;33066;49.296;14.470;2022-09-03T04:45:07;96950.35;;;16.25;37.17
47082;BME280;33066;49.296;14.470;2022-09-03T04:47:30;96959.70;;;16.28;37.39
47082;BME280;33066;49.296;14.470;2022-09-03T04:49:56;96962.33;;;16.36;37.35
47082;BME280;33066;49.296;14.470;2022-09-03T04:52:25;96970.58;;;16.42;37.16
47082;BME280;33066;49.296;14.470;2022-09-03T04:54:47;96973.59;;;16.51;37.14
47082;BME280;33066;49.296;14.470;2022-09-03T04:57:15;96974.32;;;16.57;36.97
47082;BME280;33066;49.296;14.470;2022-09-03T04:59:37;96969.33;;;16.63;36.84
47082;BME280;33066;49.296;14.470;2022-09-03T05:02:02;96971.32;;;16.61;36.86
47082;BME280;33066;49.296;14.470;2022-09-03T05:04:28;96976.72;;;16.63;37.03
47082;BME280;33066;49.296;14.470;2022-09-03T05:06:53;96974.13;;;16.40;37.01
47082;BME280;33066;49.296;14.470;2022-09-03T05:09:18;96972.65;;;16.55;37.02
47082;BME280;33066;49.296;14.470;2022-09-03T05:11:43;96973.06;;;16.85;36.89
47082;BME280;33066;49.296;14.470;2022-09-03T05:14:09;96978.81;;;16.68;36.87
47082;BME280;33066;49.296;14.470;2022-09-03T05:16:35;96986.73;;;16.72;36.82
47082;BME280;33066;49.296;14.470;2022-09-03T05:19:00;96988.99;;;17.02;36.69
47082;BME280;33066;49.296;14.470;2022-09-03T05:21:25;96991.09;;;16.81;36.56
47082;BME280;33066;49.296;14.470;2022-09-03T05:23:51;96991.28;;;16.67;36.29
47082;BME280;33066;49.296;14.470;2022-09-03T05:26:20;96986.96;;;17.28;36.29
47082;BME280;33066;49.296;14.470;2022-09-03T05:28:43;96981.74;;;17.10;36.17
47082;BME280;33066;49.296;14.470;2022-09-03T05:31:11;96982.74;;;17.09;36.25
47082;BME280;33066;49.296;14.470;2022-09-03T05:33:34;96982.71;;;17.11;36.46
47082;BME280;33066;49.296;14.470;2022-09-03T05:36:01;96983.65;;;16.82;36.39
47082;BME280;33066;49.296;14.470;2022-09-03T05:38:24;96986.06;;;17.07;36.50
47082;BME280;33066;49.296;14.470;2022-09-03T05:40:49;96988.24;;;16.60;36.52
47082;BME280;33066;49.296;14.470;2022-09-03T05:43:15;96991.69;;;16.98;36.57
47082;BME280;33066;49.296;14.470;2022-09-03T05:45:41;96988.77;;;17.05;37.09
47082;BME280;33066;49.296;14.470;2022-09-03T05:48:06;96987.78;;;16.93;36.67
47082;BME280;33066;49.296;14.470;2022-09-03T05:50:32;96984.39;;;16.73;36.59
47082;BME280;33066;49.296;14.470;2022-09-03T05:52:58;96984.15;;;17.11;36.38
47082;BME280;33066;49.296;14.470;2022-09-03T05:55:23;96989.57;;;17.43;36.57
47082;BME280;33066;49.296;14.470;2022-09-03T05:57:51;96990.53;;;17.40;36.48
47082;BME280;33066;49.296;14.470;2022-09-03T06:00:15;96993.19;;;17.47;36.55
47082;BME280;33066;49.296;14.470;2022-09-03T06:02:39;96989.55;;;17.63;36.50
47082;BME280;33066;49.296;14.470;2022-09-03T06:05:06;96990.21;;;17.48;36.36
47082;BME280;33066;49.296;14.470;2022-09-03T06:07:30;96993.74;;;17.35;36.46
47082;BME280;33066;49.296;14.470;2022-09-03T06:09:56;97000.27;;;17.70;36.29
47082;BME280;33066;49.296;14.470;2022-09-03T06:12:21;96995.12;;;17.79;36.12
47082;BME280;33066;49.296;14.470;2022-09-03T06:14:47;96988.44;;;17.53;36.25
47082;BME280;33066;49.296;14.470;2022-09-03T06:17:12;96986.30;;;17.88;37.18
47082;BME280;33066;49.296;14.470;2022-09-03T06:19:38;96983.09;;;17.86;36.71
47082;BME280;33066;49.296;14.470;2022-09-03T06:22:03;96983.30;;;17.98;36.49
47082;BME280;33066;49.296;14.470;2022-09-03T06:24:30;96985.49;;;17.97;36.04
47082;BME280;33066;49.296;14.470;2022-09-03T06:26:54;96984.94;;;18.44;36.11
47082;BME280;33066;49.296;14.470;2022-09-03T06:29:20;96982.96;;;17.87;36.05
47082;BME280;33066;49.296;14.470;2022-09-03T06:31:46;96978.95;;;17.83;36.07
47082;BME280;33066;49.296;14.470;2022-09-03T06:34:11;96978.43;;;18.21;35.91
47082;BME280;33066;49.296;14.470;2022-09-03T06:36:36;96981.07;;;18.05;35.91
47082;BME280;33066;49.296;14.470;2022-09-03T06:39:01;96978.87;;;18.14;35.79
47082;BME280;33066;49.296;14.470;2022-09-03T06:41:28;96975.21;;;18.18;35.94
47082;BME280;33066;49.296;14.470;2022-09-03T06:43:53;96976.89;;;18.12;36.03
47082;BME280;33066;49.296;14.470;2022-09-03T06:46:19;96974.01;;;17.89;36.08
47082;BME280;33066;49.296;14.470;2022-09-03T06:48:42;96972.82;;;18.27;36.14
47082;BME280;33066;49.296;14.470;2022-09-03T06:51:09;96977.60;;;18.20;36.13
47082;BME280;33066;49.296;14.470;2022-09-03T06:53:35;96980.41;;;18.53;36.24
47082;BME280;33066;49.296;14.470;2022-09-03T06:56:00;96982.90;;;18.69;36.25
47082;BME280;33066;49.296;14.470;2022-09-03T06:58:27;96980.93;;;18.77;36.04
47082;BME280;33066;49.296;14.470;2022-09-03T07:00:50;96977.78;;;18.81;36.00
47082;BME280;33066;49.296;14.470;2022-09-03T07:03:15;96972.05;;;18.57;36.06
47082;BME280;33066;49.296;14.470;2022-09-03T07:05:40;96964.90;;;18.63;36.08
47082;BME280;33066;49.296;14.470;2022-09-03T07:08:05;96963.40;;;19.03;36.13
47082;BME280;33066;49.296;14.470;2022-09-03T07:10:30;96966.18;;;18.94;36.01
47082;BME280;33066;49.296;14.470;2022-09-03T07:12:55;96963.37;;;19.07;35.94
47082;BME280;33066;49.296;14.470;2022-09-03T07:15:21;96964.50;;;18.87;36.06
47082;BME280;33066;49.296;14.470;2022-09-03T07:17:49;96965.49;;;19.13;36.15
47082;BME280;33066;49.296;14.470;2022-09-03T07:20:11;96961.35;;;19.02;36.17
47082;BME280;33066;49.296;14.470;2022-09-03T07:22:37;96962.03;;;19.06;36.21
47082;BME280;33066;49.296;14.470;2022-09-03T07:25:02;96964.68;;;19.55;36.23
47082;BME280;33066;49.296;14.470;2022-09-03T07:27:27;96965.60;;;19.43;36.13
47082;BME280;33066;49.296;14.470;2022-09-03T07:29:53;96967.21;;;19.31;35.88
47082;BME280;33066;49.296;14.470;2022-09-03T07:32:18;96962.17;;;19.35;35.67
47082;BME280;33066;49.296;14.470;2022-09-03T07:34:44;96952.12;;;19.49;35.52
47082;BME280;33066;49.296;14.470;2022-09-03T07:37:08;96948.28;;;19.60;35.13
47082;BME280;33066;49.296;14.470;2022-09-03T07:39:33;96952.43;;;19.71;34.86
47082;BME280;33066;49.296;14.470;2022-09-03T07:41:58;96955.97;;;19.55;34.47
47082;BME280;33066;49.296;14.470;2022-09-03T07:44:24;96959.86;;;19.88;34.04
47082;BME280;33066;49.296;14.470;2022-09-03T07:46:49;96963.37;;;19.95;33.74
47082;BME280;33066;49.296;14.470;2022-09-03T07:49:14;96965.62;;;19.97;33.72
47082;BME280;33066;49.296;14.470;2022-09-03T07:51:39;96965.56;;;19.95;33.28
47082;BME280;33066;49.296;14.470;2022-09-03T07:54:08;96968.04;;;20.10;33.70
47082;BME280;33066;49.296;14.470;2022-09-03T07:56:30;96968.70;;;19.92;33.37
47082;BME280;33066;49.296;14.470;2022-09-03T07:58:55;96968.93;;;20.22;33.28
47082;BME280;33066;49.296;14.470;2022-09-03T08:01:22;96968.72;;;20.29;33.31
47082;BME280;33066;49.296;14.470;2022-09-03T08:03:49;96968.55;;;20.38;33.36
47082;BME280;33066;49.296;14.470;2022-09-03T08:06:12;96971.28;;;20.27;33.38
47082;BME280;33066;49.296;14.470;2022-09-03T08:08:37;96973.17;;;20.38;33.88
47082;BME280;33066;49.296;14.470;2022-09-03T08:11:04;96971.81;;;20.44;33.87
47082;BME280;33066;49.296;14.470;2022-09-03T08:13:28;96969.82;;;20.26;34.06
47082;BME280;33066;49.296;14.470;2022-09-03T08:15:53;96967.83;;;20.28;34.11
47082;BME280;33066;49.296;14.470;2022-09-03T08:18:17;96966.85;;;20.45;33.85
47082;BME280;33066;49.296;14.470;2022-09-03T08:20:43;96966.94;;;20.48;33.64
47082;BME280;33066;49.296;14.470;2022-09-03T08:23:07;96966.97;;;21.02;33.82
47082;BME280;33066;49.296;14.470;2022-09-03T08:25:32;96966.85;;;20.68;34.13
47082;BME280;33066;49.296;14.470;2022-09-03T08:27:58;96967.45;;;20.79;33.78
47082;BME280;33066;49.296;14.470;2022-09-03T08:30:24;96971.18;;;20.84;33.59
47082;BME280;33066;49.296;14.470;2022-09-03T08:32:48;96970.68;;;20.94;33.23
47082;BME280;33066;49.296;14.470;2022-09-03T08:35:13;96966.90;;;21.05;33.52
47082;BME280;33066;49.296;14.470;2022-09-03T08:37:38;96966.15;;;20.94;33.11
47082;BME280;33066;49.296;14.470;2022-09-03T08:40:04;96965.70;;;21.32;33.11
47082;BME280;33066;49.296;14.470;2022-09-03T08:42:37;96963.19;;;21.21;33.09
47082;BME280;33066;49.296;14.470;2022-09-03T08:44:59;96961.38;;;21.51;32.66
47082;BME280;33066;49.296;14.470;2022-09-03T08:47:22;96961.59;;;21.48;32.78
47082;BME280;33066;49.296;14.470;2022-09-03T08:49:48;96963.64;;;21.46;32.74
47082;BME280;33066;49.296;14.470;2022-09-03T08:52:19;96960.89;;;21.49;32.20
47082;BME280;33066;49.296;14.470;2022-09-03T08:54:36;96955.01;;;21.43;32.79
47082;BME280;33066;49.296;14.470;2022-09-03T08:57:01;96952.74;;;21.34;33.03
47082;BME280;33066;49.296;14.470;2022-09-03T08:59:25;96947.04;;;21.46;32.45
47082;BME280;33066;49.296;14.470;2022-09-03T09:01:56;96947.78;;;21.84;32.39
47082;BME280;33066;49.296;14.470;2022-09-03T09:04:29;96949.49;;;21.87;32.49
47082;BME280;33066;49.296;14.470;2022-09-03T09:06:48;96952.93;;;21.36;32.82
47082;BME280;33066;49.296;14.470;2022-09-03T09:09:20;96957.95;;;21.74;32.78
47082;BME280;33066;49.296;14.470;2022-09-03T09:11:43;96960.03;;;21.67;32.22
47082;BME280;33066;49.296;14.470;2022-09-03T09:14:00;96955.11;;;21.72;32.46
47082;BME280;33066;49.296;14.470;2022-09-03T09:16:28;96948.29;;;21.64;32.31
47082;BME280;33066;49.296;14.470;2022-09-03T09:18:55;96944.85;;;21.84;32.14
47082;BME280;33066;49.296;14.470;2022-09-03T09:21:17;96945.49;;;21.66;31.81
47082;BME280;33066;49.296;14.470;2022-09-03T09:23:42;96941.29;;;22.06;31.76
47082;BME280;33066;49.296;14.470;2022-09-03T09:26:07;96938.34;;;21.95;32.08
47082;BME280;33066;49.296;14.470;2022-09-03T09:28:31;96939.91;;;22.30;32.00
47082;BME280;33066;49.296;14.470;2022-09-03T09:31:01;96935.71;;;22.19;31.79
47082;BME280;33066;49.296;14.470;2022-09-03T09:33:19;96935.02;;;22.09;31.26
47082;BME280;33066;49.296;14.470;2022-09-03T09:35:45;96931.14;;;22.16;31.28
47082;BME280;33066;49.296;14.470;2022-09-03T09:38:09;96928.85;;;22.30;31.42
47082;BME280;33066;49.296;14.470;2022-09-03T09:40:35;96927.88;;;22.49;31.71
47082;BME280;33066;49.296;14.470;2022-09-03T09:43:05;96924.75;;;22.43;31.57
47082;BME280;33066;49.296;14.470;2022-09-03T09:45:24;96920.91;;;22.55;31.40
47082;BME280;33066;49.296;14.470;2022-09-03T09:47:54;96922.02;;;22.92;30.91
47082;BME280;33066;49.296;14.470;2022-09-03T09:50:17;96923.57;;;22.74;30.96
47082;BME280;33066;49.296;14.470;2022-09-03T09:52:39;96925.02;;;22.58;31.23
47082;BME280;33066;49.296;14.470;2022-09-03T09:55:10;96926.22;;;22.75;31.17
47082;BME280;33066;49.296;14.470;2022-09-03T09:57:29;96923.42;;;23.42;31.58
47082;BME280;33066;49.296;14.470;2022-09-03T10:00:02;96924.10;;;23.08;31.52
47082;BME280;33066;49.296;14.470;2022-09-03T10:02:24;96927.53;;;23.22;31.37
47082;BME280;33066;49.296;14.470;2022-09-03T10:04:45;96932.46;;;23.26;30.87
47082;BME280;33066;49.296;14.470;2022-09-03T10:07:17;96929.76;;;23.18;31.24
47082;BME280;33066;49.296;14.470;2022-09-03T10:09:35;96925.66;;;23.54;31.14
47082;BME280;33066;49.296;14.470;2022-09-03T10:12:11;96925.87;;;23.49;31.22
47082;BME280;33066;49.296;14.470;2022-09-03T10:14:29;96921.07;;;23.68;31.30
47082;BME280;33066;49.296;14.470;2022-09-03T10:16:58;96919.37;;;23.62;31.00
47082;BME280;33066;49.296;14.470;2022-09-03T10:19:17;96917.29;;;23.71;31.04
47082;BME280;33066;49.296;14.470;2022-09-03T10:21:47;96921.81;;;23.86;31.14
47082;BME280;33066;49.296;14.470;2022-09-03T10:26:31;96922.50;;;23.95;30.20
47082;BME280;33066;49.296;14.470;2022-09-03T10:29:01;96921.08;;;23.89;30.54
47082;BME280;33066;49.296;14.470;2022-09-03T10:31:32;96914.17;;;24.18;31.02
47082;BME280;33066;49.296;14.470;2022-09-03T10:33:50;96914.87;;;24.18;30.04
47082;BME280;33066;49.296;14.470;2022-09-03T10:36:17;96913.10;;;24.35;29.93
47082;BME280;33066;49.296;14.470;2022-09-03T10:38:39;96912.99;;;24.22;29.74
47082;BME280;33066;49.296;14.470;2022-09-03T10:41:14;96914.54;;;24.85;29.88
47082;BME280;33066;49.296;14.470;2022-09-03T10:43:44;96907.60;;;25.36;29.56
47082;BME280;33066;49.296;14.470;2022-09-03T10:46:01;96904.95;;;25.74;28.57
47082;BME280;33066;49.296;14.470;2022-09-03T10:48:30;96901.10;;;26.38;28.28
47082;BME280;33066;49.296;14.470;2022-09-03T10:50:51;96905.53;;;26.45;27.24
47082;BME280;33066;49.296;14.470;2022-09-03T10:53:18;96901.66;;;26.41;26.96
47082;BME280;33066;49.296;14.470;2022-09-03T10:55:45;96903.77;;;26.73;26.73
47082;BME280;33066;49.296;14.470;2022-09-03T10:58:10;96902.21;;;27.08;26.55
47082;BME280;33066;49.296;14.470;2022-09-03T11:00:27;96898.43;;;27.60;25.77
47082;BME280;33066;49.296;14.470;2022-09-03T11:05:20;96892.43;;;28.12;25.12
47082;BME280;33066;49.296;14.470;2022-09-03T11:07:50;96892.83;;;28.67;24.83
47082;BME280;33066;49.296;14.470;2022-09-03T11:10:15;96887.96;;;28.45;25.00
47082;BME280;33066;49.296;14.470;2022-09-03T11:12:37;96884.09;;;28.82;24.65
47082;BME280;33066;49.296;14.470;2022-09-03T11:15:04;96881.09;;;29.16;24.57
47082;BME280;33066;49.296;14.470;2022-09-03T11:17:31;96878.43;;;29.12;24.21
47082;BME280;33066;49.296;14.470;2022-09-03T11:19:55;96873.65;;;28.97;23.98
47082;BME280;33066;49.296;14.470;2022-09-03T11:22:18;96869.19;;;29.31;24.07
47082;BME280;33066;49.296;14.470;2022-09-03T11:24:50;96870.82;;;29.01;23.76
47082;BME280;33066;49.296;14.470;2022-09-03T11:27:21;96865.35;;;29.34;24.37
47082;BME280;33066;49.296;14.470;2022-09-03T11:29:40;96861.65;;;29.32;24.31
47082;BME280;33066;49.296;14.470;2022-09-03T11:32:03;96859.56;;;29.82;23.74
47082;BME280;33066;49.296;14.470;2022-09-03T11:34:30;96862.28;;;29.70;23.96
47082;BME280;33066;49.296;14.470;2022-09-03T11:37:02;96865.73;;;29.98;23.30
47082;BME280;33066;49.296;14.470;2022-09-03T11:39:19;96868.06;;;29.94;23.83
47082;BME280;33066;49.296;14.470;2022-09-03T11:41:42;96870.81;;;29.81;23.74
47082;BME280;33066;49.296;14.470;2022-09-03T11:44:17;96873.92;;;30.35;23.38
47082;BME280;33066;49.296;14.470;2022-09-03T11:46:33;96873.34;;;30.33;22.60
47082;BME280;33066;49.296;14.470;2022-09-03T11:49:10;96871.94;;;30.35;22.91
47082;BME280;33066;49.296;14.470;2022-09-03T11:51:33;96872.55;;;30.06;22.73
47082;BME280;33066;49.296;14.470;2022-09-03T11:53:55;96872.25;;;30.73;22.72
47082;BME280;33066;49.296;14.470;2022-09-03T11:56:18;96869.68;;;30.76;22.37
47082;BME280;33066;49.296;14.470;2022-09-03T11:58:43;96867.70;;;31.32;22.31
47082;BME280;33066;49.296;14.470;2022-09-03T12:01:09;96863.24;;;31.26;22.49
47082;BME280;33066;49.296;14.470;2022-09-03T12:03:41;96861.61;;;32.07;22.25
47082;BME280;33066;49.296;14.470;2022-09-03T12:06:11;96862.41;;;31.84;21.68
47082;BME280;33066;49.296;14.470;2022-09-03T12:10:56;96860.92;;;32.45;21.82
47082;BME280;33066;49.296;14.470;2022-09-03T12:13:26;96856.28;;;32.91;21.38
47082;BME280;33066;49.296;14.470;2022-09-03T12:15:52;96855.90;;;33.24;20.76
47082;BME280;33066;49.296;14.470;2022-09-03T12:18:10;96856.12;;;33.15;20.26
47082;BME280;33066;49.296;14.470;2022-09-03T12:20:34;96853.20;;;33.34;19.56
47082;BME280;33066;49.296;14.470;2022-09-03T12:22:58;96856.08;;;33.68;19.69
47082;BME280;33066;49.296;14.470;2022-09-03T12:25:24;96854.30;;;33.20;19.52
47082;BME280;33066;49.296;14.470;2022-09-03T12:27:50;96855.17;;;33.34;19.82
47082;BME280;33066;49.296;14.470;2022-09-03T12:30:17;96853.69;;;33.51;20.08
47082;BME280;33066;49.296;14.470;2022-09-03T12:32:41;96850.30;;;33.59;19.45
47082;BME280;33066;49.296;14.470;2022-09-03T12:35:14;96845.90;;;33.92;19.63
47082;BME280;33066;49.296;14.470;2022-09-03T12:37:36;96847.76;;;34.00;19.54
47082;BME280;33066;49.296;14.470;2022-09-03T12:39:59;96850.79;;;34.32;19.51
47082;BME280;33066;49.296;14.470;2022-09-03T12:42:26;96846.67;;;34.45;19.31
47082;BME280;33066;49.296;14.470;2022-09-03T12:44:50;96848.58;;;34.69;18.64
47082;BME280;33066;49.296;14.470;2022-09-03T12:47:18;96847.52;;;35.05;18.89
47082;BME280;33066;49.296;14.470;2022-09-03T12:49:42;96843.54;;;35.55;18.83
47082;BME280;33066;49.296;14.470;2022-09-03T12:52:13;96842.85;;;35.14;18.50